createdAt,value
2019-03-17T00:02:09.047Z,11.40
2019-03-17T00:04:36.475Z,11.40
2019-03-17T00:07:26.044Z,11.30
2019-03-17T00:09:53.677Z,11.10
2019-03-17T00:12:21.086Z,11.30
2019-03-17T00:14:48.694Z,11.30
2019-03-17T00:17:15.963Z,11.30
2019-03-17T00:19:46.354Z,11.30
2019-03-17T00:22:33.199Z,11.30
2019-03-17T00:25:08.937Z,11.20
2019-03-17T00:27:33.234Z,11.30
2019-03-17T00:30:00.703Z,11.30
2019-03-17T00:32:28.004Z,11.20
2019-03-17T00:34:55.405Z,11.20
2019-03-17T00:37:22.931Z,11.20
2019-03-17T00:39:50.254Z,11.20
2019-03-17T00:42:19.827Z,11.10
2019-03-17T00:44:47.335Z,10.40
2019-03-17T00:47:14.647Z,11.00
2019-03-17T00:49:42.046Z,11.00
2019-03-17T00:52:09.439Z,11.00
2019-03-17T00:54:36.839Z,10.90
2019-03-17T00:57:04.311Z,10.90
2019-03-17T00:59:31.795Z,10.90
2019-03-17T01:01:59.248Z,10.80
2019-03-17T01:04:26.583Z,10.70
2019-03-17T01:06:54.022Z,10.70
2019-03-17T01:09:40.876Z,10.60
2019-03-17T01:12:08.423Z,9.90
2019-03-17T01:14:35.711Z,9.80
2019-03-17T01:17:03.007Z,10.40
2019-03-17T01:19:30.500Z,10.30
2019-03-17T01:21:59.406Z,10.20
2019-03-17T01:24:26.741Z,10.10
2019-03-17T01:26:54.343Z,10.10
2019-03-17T01:29:21.621Z,10.10
2019-03-17T01:32:08.383Z,10.10
2019-03-17T01:34:35.654Z,9.80
2019-03-17T01:37:03.059Z,10.00
2019-03-17T01:39:30.421Z,10.00
2019-03-17T01:41:57.986Z,10.00
2019-03-17T01:44:27.751Z,10.00
2019-03-17T01:46:55.155Z,9.90
2019-03-17T01:49:22.495Z,9.90
2019-03-17T01:51:50.072Z,9.90
2019-03-17T01:54:17.370Z,9.90
2019-03-17T01:56:44.860Z,9.90
2019-03-17T01:59:12.212Z,9.80
2019-03-17T02:01:54.265Z,9.80
2019-03-17T02:04:21.637Z,9.80
2019-03-17T02:06:49.111Z,9.80
2019-03-17T02:09:16.593Z,9.70
2019-03-17T02:11:46.080Z,9.70
2019-03-17T02:14:13.502Z,9.70
2019-03-17T02:16:41.190Z,9.70
2019-03-17T02:19:08.697Z,9.70
2019-03-17T02:21:36.017Z,9.40
2019-03-17T02:24:03.397Z,9.60
2019-03-17T02:26:30.796Z,9.70
2019-03-17T02:28:58.187Z,9.60
2019-03-17T02:31:25.795Z,9.60
2019-03-17T02:33:53.276Z,9.60
2019-03-17T02:36:20.608Z,9.60
2019-03-17T02:38:48.137Z,9.60
2019-03-17T02:41:15.527Z,9.60
2019-03-17T02:43:42.906Z,9.60
2019-03-17T02:46:10.327Z,9.60
2019-03-17T02:48:37.704Z,9.60
2019-03-17T02:51:24.495Z,9.50
2019-03-17T02:53:51.940Z,9.30
2019-03-17T02:56:19.366Z,9.40
2019-03-17T02:58:46.743Z,9.40
2019-03-17T03:01:14.145Z,9.40
2019-03-17T03:03:41.466Z,9.30
2019-03-17T03:06:08.946Z,9.30
2019-03-17T03:08:36.316Z,9.40
2019-03-17T03:11:23.099Z,9.30
2019-03-17T03:13:50.412Z,8.80
2019-03-17T03:16:17.705Z,9.30
2019-03-17T03:18:45.205Z,9.20
2019-03-17T03:21:12.504Z,9.00
2019-03-17T03:23:39.996Z,8.70
2019-03-17T03:26:07.743Z,8.60
2019-03-17T03:28:35.235Z,8.50
2019-03-17T03:31:02.534Z,8.50
2019-03-17T03:33:30.106Z,8.40
2019-03-17T03:36:10.156Z,8.40
2019-03-17T03:38:26.682Z,8.30
2019-03-17T03:40:54.051Z,8.30
2019-03-17T03:43:21.629Z,8.30
2019-03-17T03:45:49.005Z,8.40
2019-03-17T03:48:16.463Z,8.30
2019-03-17T03:50:43.866Z,8.40
2019-03-17T03:53:11.214Z,8.40
2019-03-17T03:55:51.579Z,8.30
2019-03-17T03:58:19.027Z,7.40
2019-03-17T04:00:46.499Z,8.20
2019-03-17T04:03:14.039Z,8.10
2019-03-17T04:05:41.359Z,8.20
2019-03-17T04:08:08.832Z,8.10
2019-03-17T04:10:55.603Z,8.10
2019-03-17T04:13:22.979Z,8.20
2019-03-17T04:15:50.261Z,8.20
2019-03-17T04:18:17.690Z,8.20
2019-03-17T04:20:44.983Z,8.30
2019-03-17T04:23:12.436Z,8.20
2019-03-17T04:25:59.217Z,8.20
2019-03-17T04:28:26.701Z,7.90
2019-03-17T04:30:53.992Z,8.20
2019-03-17T04:33:21.297Z,8.20
2019-03-17T04:35:48.774Z,8.10
2019-03-17T04:38:35.557Z,8.10
2019-03-17T04:41:02.856Z,7.50
2019-03-17T04:43:30.179Z,8.20
2019-03-17T04:45:57.717Z,8.20
2019-03-17T04:48:25.038Z,8.20
2019-03-17T04:50:52.445Z,8.20
2019-03-17T04:53:39.200Z,8.20
2019-03-17T04:56:07.619Z,7.70
2019-03-17T04:58:34.898Z,8.30
2019-03-17T05:01:02.296Z,8.30
2019-03-17T05:03:29.632Z,8.30
2019-03-17T05:05:56.909Z,8.30
2019-03-17T05:08:24.289Z,8.30
2019-03-17T05:10:51.575Z,8.30
2019-03-17T05:13:18.894Z,8.40
2019-03-17T05:15:46.335Z,8.30
2019-03-17T05:18:13.693Z,8.30
2019-03-17T05:21:00.478Z,8.30
2019-03-17T05:23:27.832Z,8.10
2019-03-17T05:26:14.617Z,8.30
2019-03-17T05:28:41.924Z,7.80
2019-03-17T05:31:09.281Z,8.30
2019-03-17T05:33:36.615Z,8.30
2019-03-17T05:36:04.048Z,8.50
2019-03-17T05:38:31.376Z,8.20
2019-03-17T05:40:58.803Z,8.30
2019-03-17T05:43:26.095Z,8.30
2019-03-17T05:45:53.450Z,8.20
2019-03-17T05:48:40.294Z,8.20
2019-03-17T05:51:08.294Z,8.00
2019-03-17T05:53:35.679Z,8.20
2019-03-17T05:56:03.010Z,8.20
2019-03-17T05:58:30.480Z,8.20
2019-03-17T06:00:57.848Z,8.20
2019-03-17T06:03:25.268Z,8.20
2019-03-17T06:05:52.580Z,8.20
2019-03-17T06:08:20.036Z,8.20
2019-03-17T06:10:47.457Z,8.20
2019-03-17T06:13:14.770Z,8.20
2019-03-17T06:15:42.192Z,8.10
2019-03-17T06:18:09.560Z,8.20
2019-03-17T06:20:36.979Z,8.20
2019-03-17T06:23:04.274Z,8.30
2019-03-17T06:25:31.649Z,8.30
2019-03-17T06:27:59.046Z,8.40
2019-03-17T06:30:26.587Z,8.40
2019-03-17T06:32:54.204Z,8.40
2019-03-17T06:35:21.563Z,8.40
2019-03-17T06:37:49.083Z,8.50
2019-03-17T06:40:35.947Z,8.50
2019-03-17T06:43:03.515Z,8.40
2019-03-17T06:45:30.845Z,8.10
2019-03-17T06:47:58.336Z,8.00
2019-03-17T06:50:25.663Z,7.80
2019-03-17T06:52:53.839Z,7.70
2019-03-17T06:55:21.362Z,7.70
2019-03-17T06:57:48.646Z,7.70
2019-03-17T07:00:16.003Z,7.60
2019-03-17T07:02:43.423Z,7.60
2019-03-17T07:05:30.419Z,6.80
2019-03-17T07:07:57.868Z,7.30
2019-03-17T07:10:25.418Z,7.70
2019-03-17T07:13:12.267Z,7.70
2019-03-17T07:15:39.747Z,7.30
2019-03-17T07:18:07.078Z,7.70
2019-03-17T07:20:34.825Z,7.80
2019-03-17T07:23:02.350Z,7.70
2019-03-17T07:25:29.689Z,7.60
2019-03-17T07:27:57.114Z,7.80
2019-03-17T07:33:09.133Z,7.20
2019-03-17T07:35:56.106Z,7.80
2019-03-17T07:38:23.470Z,7.20
2019-03-17T07:40:50.862Z,7.80
2019-03-17T07:43:37.647Z,8.20
2019-03-17T07:46:05.198Z,7.40
2019-03-17T07:48:32.511Z,7.90
2019-03-17T07:50:59.971Z,8.10
2019-03-17T07:53:27.402Z,7.90
2019-03-17T07:55:54.710Z,7.90
2019-03-17T07:58:22.184Z,8.00
2019-03-17T08:01:09.369Z,8.00
2019-03-17T08:03:36.752Z,7.60
2019-03-17T08:06:04.130Z,8.00
2019-03-17T08:08:31.646Z,8.00
2019-03-17T08:10:59.287Z,8.20
2019-03-17T08:13:26.684Z,8.10
2019-03-17T08:15:54.142Z,8.20
2019-03-17T08:18:41.041Z,8.10
2019-03-17T08:21:27.912Z,8.20
2019-03-17T08:23:55.225Z,7.70
2019-03-17T08:26:22.573Z,8.20
2019-03-17T08:28:50.053Z,8.20
2019-03-17T08:31:36.816Z,9.30
2019-03-17T08:34:04.374Z,7.80
2019-03-17T08:36:31.939Z,8.30
2019-03-17T08:39:18.716Z,8.30
2019-03-17T08:41:49.087Z,7.70
2019-03-17T08:44:16.508Z,8.40
2019-03-17T08:46:43.914Z,8.40
2019-03-17T08:49:11.357Z,8.50
2019-03-17T08:51:58.140Z,8.50
2019-03-17T08:54:25.581Z,8.10
2019-03-17T08:56:53.124Z,8.50
2019-03-17T08:59:40.106Z,8.20
2019-03-17T09:02:07.636Z,8.20
2019-03-17T09:04:35.161Z,8.50
2019-03-17T09:07:02.522Z,8.50
2019-03-17T09:09:29.830Z,8.50
2019-03-17T09:12:16.578Z,8.30
2019-03-17T09:14:44.274Z,7.80
2019-03-17T09:17:14.722Z,8.30
2019-03-17T09:19:41.104Z,8.30
2019-03-17T09:22:08.606Z,8.40
2019-03-17T09:24:36.098Z,8.50
2019-03-17T09:27:22.875Z,8.50
2019-03-17T09:29:50.226Z,8.00
2019-03-17T09:32:37.067Z,8.70
2019-03-17T09:35:04.560Z,8.10
2019-03-17T09:37:31.891Z,8.90
2019-03-17T09:39:59.360Z,8.90
2019-03-17T09:42:26.823Z,8.90
2019-03-17T09:44:54.118Z,8.80
2019-03-17T09:47:21.583Z,8.80
2019-03-17T09:49:48.979Z,8.70
2019-03-17T09:52:16.447Z,8.70
2019-03-17T09:54:43.804Z,8.80
2019-03-17T09:57:11.424Z,8.80
2019-03-17T09:59:38.762Z,8.70
2019-03-17T10:02:06.373Z,8.70
2019-03-17T10:04:33.727Z,8.70
2019-03-17T10:07:01.082Z,8.80
2019-03-17T10:09:28.607Z,8.80
2019-03-17T10:12:15.385Z,8.80
2019-03-17T10:14:42.842Z,8.10
2019-03-17T10:17:10.271Z,8.90
2019-03-17T10:19:37.754Z,9.00
2019-03-17T10:22:05.121Z,9.20
2019-03-17T10:24:32.576Z,9.10
2019-03-17T10:26:59.874Z,9.10
2019-03-17T10:29:27.413Z,9.20
2019-03-17T10:31:54.727Z,9.20
2019-03-17T10:34:22.026Z,9.30
2019-03-17T10:37:11.680Z,9.20
2019-03-17T10:39:39.124Z,8.80
2019-03-17T10:42:06.438Z,9.10
2019-03-17T10:44:33.844Z,9.10
2019-03-17T10:47:01.238Z,9.10
2019-03-17T10:49:28.655Z,9.10
2019-03-17T10:51:56.396Z,9.00
2019-03-17T10:54:23.861Z,8.90
2019-03-17T10:56:51.204Z,9.00
2019-03-17T10:59:18.859Z,9.10
2019-03-17T11:02:05.770Z,9.30
2019-03-17T11:04:52.766Z,9.20
2019-03-17T11:10:17.816Z,8.70
2019-03-17T11:12:45.200Z,8.60
2019-03-17T11:15:32.196Z,9.40
2019-03-17T11:17:59.609Z,8.60
2019-03-17T11:20:46.381Z,9.60
2019-03-17T11:23:13.733Z,9.20
2019-03-17T11:25:41.353Z,9.70
2019-03-17T11:28:28.134Z,9.70
2019-03-17T11:30:59.339Z,9.20
2019-03-17T11:33:26.889Z,9.50
2019-03-17T11:35:54.288Z,9.40
2019-03-17T11:38:21.826Z,9.40
2019-03-17T11:40:49.133Z,9.40
2019-03-17T11:43:36.044Z,9.40
2019-03-17T11:48:48.177Z,8.70
2019-03-17T11:51:35.091Z,9.70
2019-03-17T11:54:15.703Z,9.20
2019-03-17T11:59:28.037Z,9.40
2019-03-17T12:01:55.592Z,9.80
2019-03-17T12:04:22.951Z,9.90
2019-03-17T12:06:50.391Z,10.00
2019-03-17T12:09:28.532Z,9.90
2019-03-17T12:11:47.007Z,9.80
2019-03-17T12:14:34.006Z,9.80
2019-03-17T12:17:20.857Z,9.50
2019-03-17T12:19:48.290Z,9.60
2019-03-17T12:22:15.858Z,10.10
2019-03-17T12:24:45.636Z,10.00
2019-03-17T12:27:13.220Z,10.10
2019-03-17T12:29:40.619Z,10.00
2019-03-17T12:32:08.212Z,10.10
2019-03-17T12:34:35.767Z,10.30
2019-03-17T12:37:03.060Z,10.40
2019-03-17T12:39:30.498Z,10.40
2019-03-17T12:41:57.983Z,10.30
2019-03-17T12:44:25.448Z,10.40
2019-03-17T12:46:52.769Z,10.50
2019-03-17T12:49:20.195Z,10.40
2019-03-17T12:52:06.979Z,10.30
2019-03-17T12:54:47.159Z,10.00
2019-03-17T12:57:14.751Z,9.50
2019-03-17T12:59:42.122Z,10.30
2019-03-17T13:02:09.951Z,10.40
2019-03-17T13:04:37.263Z,10.50
2019-03-17T13:07:04.677Z,10.60
2019-03-17T13:09:51.459Z,10.70
2019-03-17T13:12:18.897Z,10.50
2019-03-17T13:14:46.369Z,10.90
2019-03-17T13:17:13.916Z,11.10
2019-03-17T13:19:41.278Z,11.20
2019-03-17T13:22:08.860Z,11.20
2019-03-17T13:24:36.317Z,12.10
2019-03-17T13:27:03.904Z,11.80
2019-03-17T13:29:31.219Z,11.70
2019-03-17T13:31:58.716Z,11.30
2019-03-17T13:34:26.209Z,11.30
2019-03-17T13:36:53.541Z,11.30
2019-03-17T13:39:40.394Z,11.20
2019-03-17T13:42:07.890Z,10.40
2019-03-17T13:44:54.677Z,11.00
2019-03-17T13:47:22.159Z,10.50
2019-03-17T13:49:49.510Z,10.50
2019-03-17T13:52:16.883Z,10.40
2019-03-17T13:54:44.184Z,10.50
2019-03-17T13:57:11.643Z,10.30
2019-03-17T13:59:39.176Z,10.20
2019-03-17T14:02:06.541Z,10.20
2019-03-17T14:04:34.388Z,10.10
2019-03-17T14:07:22.558Z,10.00
2019-03-17T14:09:50.311Z,9.70
2019-03-17T14:12:17.713Z,9.70
2019-03-17T14:14:46.882Z,9.80
2019-03-17T14:17:14.598Z,9.70
2019-03-17T14:19:41.970Z,9.80
2019-03-17T14:22:09.466Z,9.80
2019-03-17T14:24:36.769Z,9.70
2019-03-17T14:27:23.534Z,9.80
2019-03-17T14:29:50.899Z,9.40
2019-03-17T14:32:18.228Z,10.10
2019-03-17T14:34:45.727Z,10.30
2019-03-17T14:37:13.122Z,10.40
2019-03-17T14:40:00.286Z,10.40
2019-03-17T14:42:27.771Z,9.70
2019-03-17T14:44:55.897Z,10.30
2019-03-17T14:47:23.482Z,10.30
2019-03-17T14:49:50.893Z,9.90
2019-03-17T14:52:18.402Z,10.60
2019-03-17T14:54:46.026Z,10.80
2019-03-17T14:57:13.387Z,10.90
2019-03-17T14:59:40.773Z,11.00
2019-03-17T15:02:08.284Z,11.30
2019-03-17T15:04:36.245Z,11.20
2019-03-17T15:07:03.743Z,11.10
2019-03-17T15:09:31.337Z,10.80
2019-03-17T15:12:18.324Z,10.80
2019-03-17T15:14:45.708Z,9.90
2019-03-17T15:17:13.016Z,10.50
2019-03-17T15:19:40.528Z,10.50
2019-03-17T15:22:08.011Z,10.60
2019-03-17T15:24:54.899Z,10.80
2019-03-17T15:27:22.258Z,10.50
2019-03-17T15:30:11.302Z,11.10
2019-03-17T15:32:38.630Z,10.90
2019-03-17T15:35:25.680Z,10.70
2019-03-17T15:37:53.104Z,10.10
2019-03-17T15:40:20.701Z,10.30
2019-03-17T15:42:48.403Z,10.30
2019-03-17T15:45:15.959Z,10.00
2019-03-17T15:47:43.363Z,10.00
2019-03-17T15:50:12.239Z,10.00
2019-03-17T15:52:40.260Z,10.00
2019-03-17T15:55:09.239Z,10.20
2019-03-17T15:57:38.652Z,10.60
2019-03-17T16:00:26.866Z,11.00
2019-03-17T16:02:54.712Z,10.70
2019-03-17T16:05:24.534Z,10.90
2019-03-17T16:07:51.882Z,10.80
2019-03-17T16:10:19.556Z,10.70
2019-03-17T16:12:47.087Z,11.70
2019-03-17T16:15:14.612Z,10.50
2019-03-17T16:17:42.326Z,10.30
2019-03-17T16:20:11.841Z,10.20
2019-03-17T16:22:39.437Z,10.40
2019-03-17T16:25:07.271Z,10.50
2019-03-17T16:27:34.674Z,10.70
2019-03-17T16:30:23.036Z,10.80
2019-03-17T16:33:09.960Z,10.40
2019-03-17T16:35:37.494Z,10.40
2019-03-17T16:38:04.812Z,11.10
2019-03-17T16:40:32.317Z,11.00
2019-03-17T16:42:59.691Z,11.20
2019-03-17T16:45:27.214Z,11.40
2019-03-17T16:47:54.705Z,11.50
2019-03-17T16:50:22.161Z,11.10
2019-03-17T16:52:49.708Z,11.30
2019-03-17T16:55:17.156Z,11.40
2019-03-17T16:57:44.769Z,11.60
2019-03-17T17:00:31.666Z,11.70
2019-03-17T17:02:59.273Z,11.60
2019-03-17T17:05:26.668Z,11.90
2019-03-17T17:07:54.213Z,11.70
2019-03-17T17:10:21.865Z,11.50
2019-03-17T17:12:49.235Z,11.30
2019-03-17T17:15:18.767Z,11.10
2019-03-17T17:17:46.088Z,10.80
2019-03-17T17:20:15.418Z,10.40
2019-03-17T17:22:48.999Z,10.30
2019-03-17T17:25:16.369Z,10.10
2019-03-17T17:27:43.820Z,10.00
2019-03-17T17:30:12.818Z,9.90
2019-03-17T17:32:43.168Z,9.70
2019-03-17T17:35:10.626Z,9.50
2019-03-17T17:37:38.311Z,9.60
2019-03-17T17:40:08.117Z,9.60
2019-03-17T17:42:38.348Z,9.50
2019-03-17T17:45:07.585Z,9.50
2019-03-17T17:47:35.248Z,9.40
2019-03-17T17:50:02.609Z,9.40
2019-03-17T17:52:30.077Z,9.40
2019-03-17T17:54:57.667Z,9.40
2019-03-17T17:57:44.558Z,9.40
2019-03-17T18:00:15.100Z,8.80
2019-03-17T18:02:42.534Z,9.30
2019-03-17T18:05:09.991Z,9.20
2019-03-17T18:07:37.376Z,9.20
2019-03-17T18:10:24.162Z,9.10
2019-03-17T18:12:51.614Z,8.90
2019-03-17T18:15:20.169Z,9.10
2019-03-17T18:17:47.599Z,9.10
2019-03-17T18:20:35.832Z,9.10
2019-03-17T18:23:03.164Z,8.80
2019-03-17T18:25:30.595Z,9.20
2019-03-17T18:27:58.043Z,9.10
2019-03-17T18:30:25.377Z,9.10
2019-03-17T18:33:12.248Z,9.20
2019-03-17T18:35:39.963Z,9.00
2019-03-17T18:38:07.278Z,8.70
2019-03-17T18:40:34.818Z,8.60
2019-03-17T18:43:02.524Z,8.50
2019-03-17T18:45:49.535Z,8.40
2019-03-17T18:48:36.434Z,8.50
2019-03-17T18:51:03.829Z,7.80
2019-03-17T18:53:31.383Z,8.40
2019-03-17T18:55:59.082Z,8.40
2019-03-17T18:58:26.538Z,8.40
2019-03-17T19:00:53.887Z,8.40
2019-03-17T19:03:21.290Z,8.90
2019-03-17T19:05:48.814Z,8.40
2019-03-17T19:08:16.222Z,8.40
2019-03-17T19:10:43.667Z,8.30
2019-03-17T19:13:30.543Z,8.30
2019-03-17T19:15:58.073Z,8.20
2019-03-17T19:18:25.492Z,8.30
2019-03-17T19:20:53.004Z,8.20
2019-03-17T19:23:20.372Z,8.20
2019-03-17T19:25:48.048Z,8.10
2019-03-17T19:28:15.448Z,8.20
2019-03-17T19:30:42.959Z,9.20
2019-03-17T19:33:10.351Z,8.20
2019-03-17T19:35:57.643Z,8.00
2019-03-17T19:38:25.153Z,7.60
2019-03-17T19:40:52.702Z,8.20
2019-03-17T19:43:20.192Z,8.10
2019-03-17T19:45:47.638Z,8.20
2019-03-17T19:48:14.975Z,8.10
2019-03-17T19:50:43.593Z,8.00
2019-03-17T19:53:11.075Z,8.00
2019-03-17T19:55:38.511Z,8.00
2019-03-17T19:58:06.025Z,8.00
2019-03-17T20:00:33.353Z,8.00
2019-03-17T20:03:00.775Z,8.10
2019-03-17T20:05:28.255Z,8.00
2019-03-17T20:07:55.775Z,8.00
2019-03-17T20:10:23.158Z,8.00
2019-03-17T20:12:50.492Z,8.10
2019-03-17T20:15:18.280Z,8.10
2019-03-17T20:17:45.722Z,8.60
2019-03-17T20:20:13.108Z,8.00
2019-03-17T20:22:40.516Z,8.00
2019-03-17T20:25:08.167Z,8.00
2019-03-17T20:27:35.775Z,8.00
2019-03-17T20:30:03.584Z,7.90
2019-03-17T20:32:50.747Z,8.00
2019-03-17T20:35:19.099Z,7.20
2019-03-17T20:37:46.477Z,8.00
2019-03-17T20:40:14.045Z,7.90
2019-03-17T20:42:41.466Z,8.00
2019-03-17T20:45:09.159Z,7.90
2019-03-17T20:47:55.898Z,8.00
2019-03-17T20:50:23.376Z,7.10
2019-03-17T20:53:10.233Z,8.00
2019-03-17T20:55:37.803Z,7.50
2019-03-17T20:58:05.129Z,7.90
2019-03-17T21:00:32.556Z,7.80
2019-03-17T21:03:19.385Z,7.80
2019-03-17T21:05:46.992Z,7.20
2019-03-17T21:08:14.389Z,7.20
2019-03-17T21:10:41.832Z,7.20
2019-03-17T21:13:09.154Z,7.80
2019-03-17T21:15:36.594Z,7.90
2019-03-17T21:18:03.890Z,7.90
2019-03-17T21:20:31.224Z,7.80
2019-03-17T21:22:58.687Z,7.90
2019-03-17T21:25:45.477Z,7.90
2019-03-17T21:28:12.975Z,7.70
2019-03-17T21:30:40.648Z,7.90
2019-03-17T21:33:27.573Z,8.00
2019-03-17T21:36:14.331Z,7.30
2019-03-17T21:38:41.668Z,7.20
2019-03-17T21:41:09.195Z,7.90
2019-03-17T21:43:36.550Z,7.90
2019-03-17T21:46:23.367Z,7.90
2019-03-17T21:48:50.796Z,7.50
2019-03-17T21:51:18.215Z,7.90
2019-03-17T21:53:45.549Z,7.90
2019-03-17T21:56:12.966Z,8.00
2019-03-17T21:58:40.379Z,8.00
2019-03-17T22:01:07.767Z,8.00
2019-03-17T22:03:54.603Z,8.00
2019-03-17T22:06:21.890Z,7.30
2019-03-17T22:08:49.474Z,8.00
2019-03-17T22:11:16.845Z,8.00
2019-03-17T22:13:44.288Z,8.10
2019-03-17T22:16:11.605Z,8.20
2019-03-17T22:18:39.088Z,8.00
2019-03-17T22:21:06.411Z,8.00
2019-03-17T22:23:34.014Z,8.10
2019-03-17T22:26:03.362Z,8.10
2019-03-17T22:28:31.104Z,8.10
2019-03-17T22:30:58.520Z,8.10
2019-03-17T22:33:25.968Z,8.10
2019-03-17T22:35:53.387Z,8.60
2019-03-17T22:38:20.847Z,8.20
2019-03-17T22:40:48.276Z,8.20
2019-03-17T22:43:15.836Z,8.20
2019-03-17T22:45:43.303Z,8.10
2019-03-17T22:48:10.691Z,8.20
2019-03-17T22:53:35.542Z,7.30
2019-03-17T22:56:02.999Z,8.20
2019-03-17T22:58:30.339Z,8.20
2019-03-17T23:00:57.888Z,8.20
2019-03-17T23:03:25.222Z,8.20
2019-03-17T23:05:52.825Z,8.20
2019-03-17T23:08:20.331Z,8.20
2019-03-17T23:10:47.857Z,8.20
2019-03-17T23:13:15.687Z,8.20
2019-03-17T23:15:43.108Z,8.00
2019-03-17T23:18:10.443Z,8.10
2019-03-17T23:20:37.768Z,8.20
2019-03-17T23:23:05.270Z,8.20
2019-03-17T23:25:32.872Z,8.20
2019-03-17T23:28:00.481Z,8.30
2019-03-17T23:30:28.309Z,8.30
2019-03-17T23:33:15.483Z,7.40
2019-03-17T23:35:42.927Z,7.80
2019-03-17T23:38:10.465Z,8.20
2019-03-17T23:40:37.784Z,8.30
2019-03-17T23:43:24.670Z,8.30
2019-03-17T23:45:52.163Z,8.20
2019-03-17T23:48:19.579Z,8.50
2019-03-17T23:50:47.214Z,8.40
2019-03-17T23:53:14.518Z,8.30
2019-03-17T23:55:42.087Z,8.40
2019-03-17T23:58:09.660Z,8.40
